createdAt,value
2022-12-03T00:02:52.658Z,99153.34
2022-12-03T00:05:54.481Z,99161.34
2022-12-03T00:08:58.138Z,99160.50
2022-12-03T00:11:59.786Z,99169.28
2022-12-03T00:15:01.499Z,99162.91
2022-12-03T00:18:03.208Z,99161.84
2022-12-03T00:21:04.947Z,99172.78
2022-12-03T00:24:07.266Z,99162.41
2022-12-03T00:27:11.797Z,99177.31
2022-12-03T00:30:14.151Z,99158.94
2022-12-03T00:33:16.511Z,99165.63
2022-12-03T00:36:18.951Z,99174.94
2022-12-03T00:39:20.906Z,99152.31
2022-12-03T00:42:22.615Z,99160.00
2022-12-03T00:45:24.635Z,99156.81
2022-12-03T00:48:26.911Z,99160.28
2022-12-03T00:51:29.122Z,99167.75
2022-12-03T00:54:32.248Z,99162.41
2022-12-03T00:57:34.552Z,99157.34
2022-12-03T01:00:37.538Z,99145.91
2022-12-03T01:03:41.773Z,99160.56
2022-12-03T01:06:43.931Z,99140.59
2022-12-03T01:09:45.667Z,99176.03
2022-12-03T01:12:47.471Z,99164.81
2022-12-03T01:15:49.216Z,99143.25
2022-12-03T01:18:52.781Z,99182.66
2022-12-03T01:21:55.520Z,99170.97
2022-12-03T01:24:57.261Z,99165.59
2022-12-03T01:27:58.915Z,99158.72
2022-12-03T01:31:19.188Z,99173.63
2022-12-03T01:34:21.066Z,99172.03
2022-12-03T01:37:24.836Z,99184.00
2022-12-03T01:40:26.457Z,99181.59
2022-12-03T01:43:28.114Z,99161.63
2022-12-03T01:46:38.640Z,99174.13
2022-12-03T01:49:45.683Z,99176.25
2022-12-03T01:52:47.519Z,99190.09
2022-12-03T01:55:49.214Z,99167.22
2022-12-03T01:58:51.033Z,99171.50
2022-12-03T02:01:52.725Z,99178.94
2022-12-03T02:04:55.433Z,99155.00
2022-12-03T02:07:58.305Z,99176.53
2022-12-03T02:11:16.062Z,99164.28
2022-12-03T02:14:21.827Z,99161.38
2022-12-03T02:17:23.867Z,99177.88
2022-12-03T02:20:25.689Z,99172.53
2022-12-03T02:23:39.504Z,99169.63
2022-12-03T02:26:41.310Z,99173.06
2022-12-03T02:29:43.213Z,99176.78
2022-12-03T02:32:45.002Z,99180.00
2022-12-03T02:35:46.958Z,99184.22
2022-12-03T02:38:51.100Z,99170.94
2022-12-03T02:42:11.640Z,99172.28
2022-12-03T02:45:27.625Z,99161.09
2022-12-03T02:48:34.570Z,99161.66
2022-12-03T02:51:36.455Z,99152.06
2022-12-03T02:54:38.339Z,99162.94
2022-12-03T02:57:40.979Z,99175.19
2022-12-03T03:00:44.088Z,99168.00
2022-12-03T03:03:47.725Z,99172.00
2022-12-03T03:06:49.556Z,99162.69
2022-12-03T03:09:51.307Z,99178.38
2022-12-03T03:12:55.269Z,99171.47
2022-12-03T03:15:57.482Z,99182.09
2022-12-03T03:18:59.403Z,99171.19
2022-12-03T03:22:01.009Z,99162.16
2022-12-03T03:25:04.665Z,99174.94
2022-12-03T03:28:07.547Z,99175.72
2022-12-03T03:31:11.856Z,99175.72
2022-12-03T03:34:14.882Z,99181.59
2022-12-03T03:37:16.847Z,99180.25
2022-12-03T03:40:20.799Z,99183.19
2022-12-03T03:43:23.836Z,99167.50
2022-12-03T03:46:26.843Z,99173.84
2022-12-03T03:49:29.410Z,99155.22
2022-12-03T03:52:31.241Z,99146.69
2022-12-03T03:55:33.921Z,99143.50
2022-12-03T03:58:36.214Z,99131.25
2022-12-03T04:01:38.075Z,99170.16
2022-12-03T04:04:40.121Z,99176.50
2022-12-03T04:07:42.003Z,99163.75
2022-12-03T04:11:02.133Z,99174.13
2022-12-03T04:14:03.930Z,99169.84
2022-12-03T04:17:05.671Z,99170.38
2022-12-03T04:20:07.554Z,99164.78
2022-12-03T04:23:09.495Z,99140.81
2022-12-03T04:26:29.708Z,99141.34
2022-12-03T04:29:31.380Z,99133.91
2022-12-03T04:32:51.762Z,99132.06
2022-12-03T04:35:53.639Z,99116.91
2022-12-03T04:38:55.370Z,99140.59
2022-12-03T04:41:57.193Z,99132.31
2022-12-03T04:45:01.148Z,99121.41
2022-12-03T04:48:02.792Z,99135.50
2022-12-03T04:51:04.445Z,99131.50
2022-12-03T04:54:06.137Z,99140.56
2022-12-03T04:57:08.858Z,99145.59
2022-12-03T05:00:11.349Z,99100.91
2022-12-03T05:03:13.002Z,99111.03
2022-12-03T05:06:14.842Z,99109.72
2022-12-03T05:09:16.800Z,99124.34
2022-12-03T05:12:18.515Z,99126.75
2022-12-03T05:15:20.219Z,99133.91
2022-12-03T05:18:22.049Z,99136.84
2022-12-03T05:21:23.748Z,99120.88
2022-12-03T05:24:25.404Z,99132.31
2022-12-03T05:27:27.242Z,99124.59
2022-12-03T05:30:28.959Z,99120.88
2022-12-03T05:33:32.127Z,99126.47
2022-12-03T05:36:33.813Z,99125.13
2022-12-03T05:39:35.500Z,99128.06
2022-12-03T05:42:56.846Z,99124.59
2022-12-03T05:46:11.903Z,99124.34
2022-12-03T05:49:24.837Z,99119.84
2022-12-03T05:52:41.075Z,99106.50
2022-12-03T05:59:29.344Z,99103.56
2022-12-03T06:02:41.255Z,99115.53
2022-12-03T06:05:45.878Z,99121.09
2022-12-03T06:08:47.868Z,99121.28
2022-12-03T06:11:54.138Z,99122.34
2022-12-03T06:14:56.506Z,99140.38
2022-12-03T06:17:59.029Z,99141.44
2022-12-03T06:21:08.864Z,99141.19
2022-12-03T06:24:21.320Z,99154.22
2022-12-03T06:27:27.195Z,99162.69
2022-12-03T06:30:33.295Z,99155.53
2022-12-03T06:37:03.498Z,99173.59
2022-12-03T06:40:06.962Z,99159.47
2022-12-03T06:43:09.567Z,99172.25
2022-12-03T06:46:12.470Z,99165.63
2022-12-03T06:49:14.244Z,99156.34
2022-12-03T06:52:17.287Z,99158.78
2022-12-03T06:55:36.297Z,99173.66
2022-12-03T06:59:14.755Z,99173.53
2022-12-03T07:02:28.120Z,99182.13
2022-12-03T07:05:48.109Z,99168.53
2022-12-03T07:08:52.923Z,99189.28
2022-12-03T07:12:14.995Z,99193.50
2022-12-03T07:19:16.280Z,99184.97
2022-12-03T07:43:10.752Z,99172.03
2022-12-03T07:55:35.617Z,99090.94
2022-12-03T08:03:24.351Z,99123.91
2022-12-03T08:07:52.644Z,99125.53
2022-12-03T09:23:16.361Z,99060.72
2022-12-03T09:31:56.632Z,99063.38
2022-12-03T09:35:18.407Z,99074.84
2022-12-03T09:39:23.799Z,99077.78
2022-12-03T09:42:41.719Z,99066.09
2022-12-03T09:46:30.974Z,99097.22
2022-12-03T09:50:18.275Z,99089.50
2022-12-03T09:54:12.110Z,99112.09
2022-12-03T09:58:23.431Z,99090.03
2022-12-03T10:02:00.340Z,99093.75
2022-12-03T10:05:15.270Z,99141.41
2022-12-03T10:08:32.347Z,99116.91
2022-12-03T10:11:39.286Z,99090.06
2022-12-03T10:15:14.781Z,99121.44
2022-12-03T10:18:21.614Z,99089.50
2022-12-03T10:26:04.835Z,99102.81
2022-12-03T10:35:08.452Z,99075.13
2022-12-03T10:38:28.452Z,99076.19
2022-12-03T10:42:27.315Z,99006.47
2022-12-03T10:50:34.710Z,99057.78
2022-12-03T10:53:58.222Z,99049.75
2022-12-03T10:57:00.240Z,99026.88
2022-12-03T11:00:36.963Z,99059.78
2022-12-03T11:12:36.951Z,99048.13
2022-12-03T11:16:13.727Z,99015.72
2022-12-03T11:21:13.656Z,98996.84
2022-12-03T11:24:50.490Z,98980.34
2022-12-03T11:28:39.663Z,98988.81
2022-12-03T11:35:31.087Z,98951.53
2022-12-03T11:39:33.944Z,99013.41
2022-12-03T11:43:03.378Z,98974.59
2022-12-03T11:51:20.966Z,98963.72
2022-12-03T11:54:28.217Z,98944.59
2022-12-03T11:58:07.113Z,98931.31
2022-12-03T12:01:41.802Z,98958.63
2022-12-03T12:08:23.464Z,98936.84
2022-12-03T12:12:08.100Z,98986.50
2022-12-03T12:16:02.776Z,98974.75
2022-12-03T12:19:47.339Z,98984.59
2022-12-03T12:23:28.464Z,98932.25
2022-12-03T12:31:24.520Z,98969.13
2022-12-03T12:48:59.848Z,98926.50
2022-12-03T12:52:02.732Z,98940.91
2022-12-03T12:55:12.459Z,98880.66
2022-12-03T12:58:20.083Z,98919.34
2022-12-03T13:01:41.914Z,98909.75
2022-12-03T13:05:00.273Z,98870.59
2022-12-03T13:08:35.394Z,98873.47
2022-12-03T13:11:54.941Z,98873.69
2022-12-03T13:15:52.132Z,98934.81
2022-12-03T13:19:15.773Z,98924.31
2022-12-03T13:26:47.714Z,98935.75
2022-12-03T13:30:02.161Z,98888.34
2022-12-03T13:33:27.357Z,98897.56
2022-12-03T13:41:51.833Z,98929.47
2022-12-03T13:45:04.249Z,98900.91
2022-12-03T13:56:51.539Z,98869.72
2022-12-03T14:04:46.194Z,98853.00
2022-12-03T14:08:08.902Z,98859.00
2022-12-03T14:11:37.966Z,98848.31
2022-12-03T14:14:59.946Z,98880.16
2022-12-03T14:18:53.469Z,98833.31
2022-12-03T14:22:10.437Z,98838.19
2022-12-03T14:27:11.143Z,98904.38
2022-12-03T14:30:42.474Z,98843.00
2022-12-03T14:39:35.389Z,98864.94
2022-12-03T14:42:42.814Z,98882.16
2022-12-03T14:45:46.078Z,98859.63
2022-12-03T14:48:54.965Z,98843.66
2022-12-03T14:52:08.589Z,98849.16
2022-12-03T14:55:21.991Z,98851.28
2022-12-03T14:58:48.072Z,98853.94
2022-12-03T15:02:17.774Z,98853.19
2022-12-03T15:05:49.347Z,98883.50
2022-12-03T15:09:24.757Z,98849.75
2022-12-03T15:12:45.966Z,98884.53
2022-12-03T15:15:53.150Z,98916.97
2022-12-03T15:19:06.446Z,98911.66
2022-12-03T15:22:27.710Z,98911.41
2022-12-03T15:25:48.567Z,98915.00
2022-12-03T15:28:59.287Z,98914.75
2022-12-03T15:32:04.867Z,98926.16
2022-12-03T15:35:09.344Z,98913.72
2022-12-03T15:38:11.967Z,98920.06
2022-12-03T15:41:30.160Z,98923.03
2022-12-03T15:44:34.254Z,98916.44
2022-12-03T15:47:41.758Z,98920.44
2022-12-03T15:50:45.092Z,98919.41
2022-12-03T15:53:47.617Z,98908.00
2022-12-03T15:56:57.054Z,98910.44
2022-12-03T16:00:01.874Z,98887.59
2022-12-03T16:03:14.795Z,98901.41
2022-12-03T16:06:19.827Z,98889.69
2022-12-03T16:09:26.922Z,98900.59
2022-12-03T16:12:30.564Z,98898.22
2022-12-03T16:15:33.167Z,98893.44
2022-12-03T16:18:37.564Z,98896.34
2022-12-03T16:21:46.780Z,98888.66
2022-12-03T16:24:53.285Z,98888.94
2022-12-03T16:28:02.112Z,98875.94
2022-12-03T16:31:22.386Z,98880.25
2022-12-03T16:34:34.519Z,98877.09
2022-12-03T16:37:46.373Z,98874.19
2022-12-03T16:40:49.550Z,98881.88
2022-12-03T16:43:51.348Z,98890.38
2022-12-03T16:46:53.946Z,98881.06
2022-12-03T16:49:58.499Z,98876.53
2022-12-03T16:53:00.283Z,98864.31
2022-12-03T16:56:02.695Z,98866.44
2022-12-03T16:59:05.344Z,98875.50
2022-12-03T17:02:07.733Z,98854.50
2022-12-03T17:05:09.629Z,98868.56
2022-12-03T17:08:11.464Z,98858.47
2022-12-03T17:11:13.376Z,98866.66
2022-12-03T17:14:15.154Z,98866.44
2022-12-03T17:17:16.865Z,98852.34
2022-12-03T17:20:18.958Z,98863.47
2022-12-03T17:23:20.730Z,98846.97
2022-12-03T17:26:22.475Z,98847.19
2022-12-03T17:29:24.994Z,98849.09
2022-12-03T17:32:26.695Z,98845.69
2022-12-03T17:35:28.663Z,98848.41
2022-12-03T17:38:35.684Z,98862.22
2022-12-03T17:41:40.847Z,98872.84
2022-12-03T17:44:42.655Z,98873.38
2022-12-03T17:47:44.455Z,98855.84
2022-12-03T17:50:46.390Z,98860.63
2022-12-03T17:53:48.118Z,98877.31
2022-12-03T17:56:49.884Z,98860.13
2022-12-03T17:59:52.225Z,98869.47
2022-12-03T18:02:56.985Z,98842.88
2022-12-03T18:05:58.699Z,98858.47
2022-12-03T18:09:00.485Z,98856.38
2022-12-03T18:12:02.199Z,98845.75
2022-12-03T18:15:04.790Z,98835.91
2022-12-03T18:18:07.031Z,98855.56
2022-12-03T18:21:08.868Z,98835.72
2022-12-03T18:24:10.668Z,98842.91
2022-12-03T18:27:12.571Z,98831.22
2022-12-03T18:30:14.465Z,98832.31
2022-12-03T18:33:16.340Z,98844.53
2022-12-03T18:36:21.247Z,98842.69
2022-12-03T18:39:33.925Z,98854.38
2022-12-03T18:42:35.681Z,98846.94
2022-12-03T18:45:37.994Z,98828.16
2022-12-03T18:48:39.722Z,98850.22
2022-12-03T18:51:41.550Z,98845.44
2022-12-03T18:54:43.665Z,98845.97
2022-12-03T18:57:46.037Z,98845.69
2022-12-03T19:00:47.903Z,98839.59
2022-12-03T19:03:50.017Z,98827.91
2022-12-03T19:06:51.721Z,98834.56
2022-12-03T19:09:53.596Z,98838.00
2022-12-03T19:12:55.487Z,98816.75
2022-12-03T19:15:57.206Z,98836.13
2022-12-03T19:18:58.918Z,98837.44
2022-12-03T19:22:00.636Z,98827.38
2022-12-03T19:25:03.429Z,98838.53
2022-12-03T19:28:05.312Z,98829.22
2022-12-03T19:31:12.428Z,98837.72
2022-12-03T19:34:14.164Z,98834.78
2022-12-03T19:37:16.053Z,98840.66
2022-12-03T19:40:19.048Z,98833.47
2022-12-03T19:43:20.767Z,98840.66
2022-12-03T19:46:24.671Z,98842.28
2022-12-03T19:49:26.572Z,98850.25
2022-12-03T19:52:28.266Z,98851.84
2022-12-03T19:55:29.928Z,98848.13
2022-12-03T19:58:31.916Z,98840.69
2022-12-03T20:01:36.069Z,98854.50
2022-12-03T20:04:38.289Z,98846.56
2022-12-03T20:07:40.111Z,98847.59
2022-12-03T20:10:41.890Z,98827.41
2022-12-03T20:13:44.245Z,98850.22
2022-12-03T20:16:47.473Z,98853.94
2022-12-03T20:19:49.377Z,98835.63
2022-12-03T20:22:51.160Z,98851.03
2022-12-03T20:25:53.041Z,98845.97
2022-12-03T20:28:56.141Z,98840.44
2022-12-03T20:31:57.878Z,98836.44
2022-12-03T20:35:00.002Z,98828.75
2022-12-03T20:38:01.623Z,98841.75
2022-12-03T20:41:06.032Z,98846.03
2022-12-03T20:44:08.197Z,98837.25
2022-12-03T20:47:10.047Z,98830.38
2022-12-03T20:50:12.028Z,98828.50
2022-12-03T20:53:24.642Z,98815.22
2022-12-03T20:56:33.314Z,98817.06
2022-12-03T20:59:35.122Z,98826.34
2022-12-03T21:02:38.000Z,98829.00
2022-12-03T21:05:39.768Z,98817.88
2022-12-03T21:08:42.794Z,98829.81
2022-12-03T21:11:44.866Z,98809.66
2022-12-03T21:14:46.875Z,98817.88
2022-12-03T21:17:48.850Z,98820.78
2022-12-03T21:20:50.625Z,98826.38
2022-12-03T21:23:52.971Z,98826.38
2022-12-03T21:26:54.633Z,98829.03
2022-12-03T21:29:56.710Z,98826.38
2022-12-03T21:32:58.546Z,98834.06
2022-12-03T21:36:01.098Z,98828.44
2022-12-03T21:39:03.314Z,98837.78
2022-12-03T21:42:34.207Z,98827.69
2022-12-03T21:45:26.679Z,98831.69
2022-12-03T21:48:28.308Z,98834.59
2022-12-03T21:51:30.073Z,98824.78
2022-12-03T21:54:31.802Z,98825.28
2022-12-03T21:57:36.449Z,98821.06
2022-12-03T22:00:38.375Z,98819.19
2022-12-03T22:03:40.186Z,98817.59
2022-12-03T22:06:41.963Z,98827.69
2022-12-03T22:09:43.636Z,98817.31
2022-12-03T22:12:45.489Z,98822.88
2022-12-03T22:15:47.231Z,98805.88
2022-12-03T22:18:49.137Z,98804.56
2022-12-03T22:21:50.924Z,98786.50
2022-12-03T22:24:52.618Z,98778.56
2022-12-03T22:27:54.341Z,98795.81
2022-12-03T22:30:56.263Z,98787.06
2022-12-03T22:33:58.102Z,98798.16
2022-12-03T22:36:59.779Z,98791.25
2022-12-03T22:40:01.629Z,98792.59
2022-12-03T22:43:03.320Z,98786.75
2022-12-03T22:46:06.723Z,98794.44
2022-12-03T22:49:08.562Z,98790.72
2022-12-03T22:52:10.189Z,98780.38
2022-12-03T22:55:11.836Z,98794.69
2022-12-03T22:58:13.473Z,98796.81
2022-12-03T23:01:24.061Z,98795.47
2022-12-03T23:04:25.744Z,98797.81
2022-12-03T23:07:27.530Z,98787.22
2022-12-03T23:10:32.657Z,98787.47
2022-12-03T23:13:36.324Z,98811.59
2022-12-03T23:16:38.400Z,98796.44
2022-12-03T23:19:40.177Z,98805.28
2022-12-03T23:22:42.017Z,98793.06
2022-12-03T23:25:44.012Z,98811.63
2022-12-03T23:28:46.629Z,98794.63
2022-12-03T23:31:48.366Z,98788.00
2022-12-03T23:34:53.060Z,98801.28
2022-12-03T23:37:54.934Z,98801.81
2022-12-03T23:40:56.790Z,98797.84
2022-12-03T23:43:58.581Z,98807.94
2022-12-03T23:47:01.004Z,98792.81
2022-12-03T23:50:04.341Z,98799.22
2022-12-03T23:53:06.084Z,98789.88
2022-12-03T23:56:15.062Z,98781.66
2022-12-03T23:59:16.773Z,98781.63
